createdAt,value
2023-04-08T00:02:31.591Z,101574.06
2023-04-08T00:05:16.266Z,101577.59
2023-04-08T00:08:01.193Z,101576.80
2023-04-08T00:10:37.335Z,101580.86
2023-04-08T00:13:23.902Z,101584.58
2023-04-08T00:16:07.042Z,101587.46
2023-04-08T00:18:43.930Z,101594.15
2023-04-08T00:21:25.601Z,101594.35
2023-04-08T00:24:01.559Z,101597.77
2023-04-08T00:26:37.911Z,101597.19
2023-04-08T00:29:25.941Z,101600.20
2023-04-08T00:32:05.505Z,101596.90
2023-04-08T00:34:44.979Z,101598.70
2023-04-08T00:37:29.097Z,101601.17
2023-04-08T00:40:05.504Z,101602.84
2023-04-08T00:42:47.133Z,101605.90
2023-04-08T00:45:47.189Z,101605.60
2023-04-08T00:48:31.327Z,101610.05
2023-04-08T00:51:10.255Z,101609.27
2023-04-08T00:53:46.010Z,101608.70
2023-04-08T00:56:30.805Z,101611.16
2023-04-08T00:59:08.139Z,101614.02
2023-04-08T01:01:57.458Z,101619.45
2023-04-08T01:04:47.119Z,101620.36
2023-04-08T01:07:33.807Z,101623.14
2023-04-08T01:10:19.511Z,101624.17
2023-04-08T01:13:00.276Z,101624.25
2023-04-08T01:15:47.789Z,101627.58
2023-04-08T01:18:30.779Z,101629.98
2023-04-08T01:21:08.081Z,101627.34
2023-04-08T01:24:02.839Z,101629.55
2023-04-08T01:26:42.794Z,101631.23
2023-04-08T01:29:24.617Z,101631.38
2023-04-08T01:32:18.414Z,101634.58
2023-04-08T01:34:55.137Z,101639.48
2023-04-08T01:37:33.140Z,101637.02
2023-04-08T01:40:34.323Z,101635.50
2023-04-08T01:43:18.011Z,101637.14
2023-04-08T01:45:58.863Z,101635.73
2023-04-08T01:48:41.770Z,101634.94
2023-04-08T01:51:21.900Z,101641.69
2023-04-08T01:54:02.224Z,101647.13
2023-04-08T01:56:46.199Z,101644.80
2023-04-08T01:59:33.632Z,101649.95
2023-04-08T02:02:16.624Z,101649.59
2023-04-08T02:04:58.458Z,101651.55
2023-04-08T02:07:36.972Z,101654.48
2023-04-08T02:10:17.326Z,101660.33
2023-04-08T02:12:57.574Z,101660.58
2023-04-08T02:15:40.982Z,101667.98
2023-04-08T02:18:25.482Z,101673.08
2023-04-08T02:21:17.887Z,101676.05
2023-04-08T02:23:53.809Z,101677.96
2023-04-08T02:26:32.847Z,101677.84
2023-04-08T02:29:15.240Z,101677.55
2023-04-08T02:32:09.076Z,101680.66
2023-04-08T02:34:49.789Z,101684.08
2023-04-08T02:37:42.266Z,101686.16
2023-04-08T02:40:32.944Z,101688.42
2023-04-08T02:43:15.237Z,101691.27
2023-04-08T02:46:04.189Z,101693.27
2023-04-08T02:48:46.360Z,101696.16
2023-04-08T02:51:23.912Z,101699.71
2023-04-08T02:54:08.483Z,101698.77
2023-04-08T02:56:47.513Z,101700.60
2023-04-08T02:59:22.804Z,101706.02
2023-04-08T03:02:06.461Z,101708.18
2023-04-08T03:04:47.216Z,101711.30
2023-04-08T03:07:32.793Z,101711.39
2023-04-08T03:10:27.138Z,101711.35
2023-04-08T03:13:08.345Z,101713.64
2023-04-08T03:15:48.890Z,101715.89
2023-04-08T03:18:34.896Z,101722.10
2023-04-08T03:21:16.597Z,101722.41
2023-04-08T03:23:57.806Z,101723.96
2023-04-08T03:26:41.373Z,101727.36
2023-04-08T03:29:28.933Z,101725.70
2023-04-08T03:32:08.460Z,101726.80
2023-04-08T03:34:53.248Z,101726.84
2023-04-08T03:37:40.481Z,101728.05
2023-04-08T03:40:26.222Z,101729.01
2023-04-08T03:43:06.482Z,101731.36
2023-04-08T03:45:44.287Z,101733.64
2023-04-08T03:48:25.283Z,101737.59
2023-04-08T03:51:03.704Z,101739.48
2023-04-08T03:53:38.469Z,101738.98
2023-04-08T03:56:15.402Z,101742.39
2023-04-08T03:58:52.923Z,101745.52
2023-04-08T04:01:33.517Z,101749.45
2023-04-08T04:04:16.742Z,101747.84
2023-04-08T04:06:59.399Z,101747.84
2023-04-08T04:09:34.847Z,101748.27
2023-04-08T04:12:11.501Z,101750.38
2023-04-08T04:14:48.579Z,101753.91
2023-04-08T04:17:30.232Z,101754.90
2023-04-08T04:20:15.691Z,101753.24
2023-04-08T04:22:51.497Z,101758.73
2023-04-08T04:25:27.578Z,101760.19
2023-04-08T04:28:05.165Z,101762.89
2023-04-08T04:30:42.940Z,101764.77
2023-04-08T04:33:20.194Z,101765.53
2023-04-08T04:35:56.350Z,101769.10
2023-04-08T04:38:31.315Z,101776.07
2023-04-08T04:41:10.078Z,101779.13
2023-04-08T04:43:46.803Z,101782.23
2023-04-08T04:46:21.983Z,101785.70
2023-04-08T04:48:59.104Z,101788.02
2023-04-08T04:51:37.110Z,101789.95
2023-04-08T04:54:16.470Z,101792.92
2023-04-08T04:56:54.484Z,101795.64
2023-04-08T04:59:30.995Z,101799.31
2023-04-08T05:02:07.972Z,101805.13
2023-04-08T05:04:43.069Z,101806.80
2023-04-08T05:07:23.260Z,101811.90
2023-04-08T05:10:02.250Z,101812.52
2023-04-08T05:12:39.713Z,101813.58
2023-04-08T05:15:20.950Z,101813.55
2023-04-08T05:17:59.015Z,101817.10
2023-04-08T05:20:34.586Z,101820.71
2023-04-08T05:23:28.831Z,101824.25
2023-04-08T05:26:08.930Z,101823.73
2023-04-08T05:28:42.951Z,101825.92
2023-04-08T05:31:21.566Z,101829.36
2023-04-08T05:34:00.183Z,101826.54
2023-04-08T05:36:37.941Z,101832.23
2023-04-08T05:39:19.196Z,101832.88
2023-04-08T05:41:55.539Z,101833.68
2023-04-08T05:44:39.441Z,101835.00
2023-04-08T05:47:16.394Z,101837.21
2023-04-08T05:49:53.408Z,101846.65
2023-04-08T05:52:29.603Z,101844.70
2023-04-08T05:55:05.682Z,101851.30
2023-04-08T05:57:46.072Z,101854.42
2023-04-08T06:00:23.527Z,101857.11
2023-04-08T06:03:04.283Z,101858.68
2023-04-08T06:05:42.714Z,101860.61
2023-04-08T06:08:21.425Z,101862.63
2023-04-08T06:10:58.458Z,101864.23
2023-04-08T06:13:36.593Z,101866.78
2023-04-08T06:16:22.522Z,101870.37
2023-04-08T06:19:02.198Z,101873.21
2023-04-08T06:21:40.273Z,101872.48
2023-04-08T06:24:17.832Z,101873.97
2023-04-08T06:26:56.531Z,101877.52
2023-04-08T06:29:36.004Z,101880.20
2023-04-08T06:32:18.484Z,101882.20
2023-04-08T06:34:55.685Z,101884.64
2023-04-08T06:37:32.024Z,101883.47
2023-04-08T06:40:12.605Z,101886.81
2023-04-08T06:42:52.291Z,101886.95
2023-04-08T06:45:59.577Z,101892.60
2023-04-08T06:48:38.026Z,101892.90
2023-04-08T06:51:30.334Z,101898.48
2023-04-08T06:54:06.938Z,101900.16
2023-04-08T06:56:51.429Z,101904.70
2023-04-08T06:59:29.479Z,101903.94
2023-04-08T07:02:04.757Z,101903.04
2023-04-08T07:04:39.759Z,101904.55
2023-04-08T07:07:15.590Z,101911.53
2023-04-08T07:10:11.040Z,101911.84
2023-04-08T07:12:45.783Z,101917.94
2023-04-08T07:15:22.959Z,101918.73
2023-04-08T07:18:01.124Z,101922.85
2023-04-08T07:20:40.193Z,101926.38
2023-04-08T07:23:18.285Z,101927.52
2023-04-08T07:25:56.124Z,101927.12
2023-04-08T07:28:35.539Z,101930.06
2023-04-08T07:31:20.751Z,101932.92
2023-04-08T07:34:06.706Z,101939.30
2023-04-08T07:36:44.162Z,101944.80
2023-04-08T07:39:18.756Z,101944.58
2023-04-08T07:42:15.164Z,101946.11
2023-04-08T07:44:53.215Z,101947.48
2023-04-08T07:47:31.236Z,101949.86
2023-04-08T07:50:15.482Z,101950.27
2023-04-08T07:52:56.958Z,101954.61
2023-04-08T07:55:35.685Z,101956.11
2023-04-08T07:58:13.653Z,101954.09
2023-04-08T08:00:52.122Z,101957.23
2023-04-08T08:03:29.445Z,101959.75
2023-04-08T08:06:10.272Z,101959.55
2023-04-08T08:08:46.645Z,101964.98
2023-04-08T08:11:28.715Z,101965.76
2023-04-08T08:14:05.333Z,101965.48
2023-04-08T08:16:45.134Z,101966.75
2023-04-08T08:19:20.544Z,101970.29
2023-04-08T08:21:56.064Z,101971.92
2023-04-08T08:24:35.178Z,101974.00
2023-04-08T08:27:11.387Z,101976.65
2023-04-08T08:29:46.755Z,101977.52
2023-04-08T08:32:23.667Z,101973.67
2023-04-08T08:34:59.392Z,101974.61
2023-04-08T08:37:35.439Z,101972.87
2023-04-08T08:40:16.113Z,101969.13
2023-04-08T08:42:58.966Z,101970.25
2023-04-08T08:45:35.521Z,101967.98
2023-04-08T08:48:10.879Z,101968.29
2023-04-08T08:50:46.526Z,101970.28
2023-04-08T08:53:25.338Z,101966.91
2023-04-08T08:56:17.679Z,101969.26
2023-04-08T08:58:54.312Z,101966.39
2023-04-08T09:01:41.940Z,101969.98
2023-04-08T09:04:21.728Z,101971.46
2023-04-08T09:07:15.061Z,101972.36
2023-04-08T09:10:02.288Z,101975.09
2023-04-08T09:12:59.197Z,101973.02
2023-04-08T09:15:39.502Z,101978.39
2023-04-08T09:18:26.948Z,101977.20
2023-04-08T09:21:04.232Z,101979.70
2023-04-08T09:23:49.081Z,101979.80
2023-04-08T09:26:28.976Z,101981.24
2023-04-08T09:29:24.220Z,101978.81
2023-04-08T09:32:03.996Z,101982.56
2023-04-08T09:34:40.866Z,101974.86
2023-04-08T09:37:19.716Z,101971.60
2023-04-08T09:39:56.270Z,101970.03
2023-04-08T09:42:32.696Z,101971.36
2023-04-08T09:45:15.552Z,101969.55
2023-04-08T09:48:16.345Z,101968.77
2023-04-08T09:51:00.072Z,101965.13
2023-04-08T09:53:40.814Z,101967.13
2023-04-08T09:56:19.075Z,101967.36
2023-04-08T09:59:02.541Z,101962.75
2023-04-08T10:01:47.254Z,101967.17
2023-04-08T10:04:27.994Z,101964.31
2023-04-08T10:07:12.427Z,101963.47
2023-04-08T10:09:50.110Z,101961.95
2023-04-08T10:12:26.510Z,101962.11
2023-04-08T10:15:29.440Z,101961.30
2023-04-08T10:18:38.476Z,101959.68
2023-04-08T10:21:38.292Z,101957.83
2023-04-08T10:24:15.045Z,101955.02
2023-04-08T10:26:51.977Z,101957.22
2023-04-08T10:29:41.881Z,101956.02
2023-04-08T10:32:32.032Z,101952.11
2023-04-08T10:35:07.724Z,101946.86
2023-04-08T10:37:52.423Z,101945.48
2023-04-08T10:40:29.191Z,101938.61
2023-04-08T10:43:06.899Z,101939.80
2023-04-08T10:45:41.523Z,101941.20
2023-04-08T10:48:31.494Z,101942.07
2023-04-08T10:51:09.602Z,101940.77
2023-04-08T10:53:45.323Z,101933.56
2023-04-08T10:56:25.499Z,101930.67
2023-04-08T10:59:04.653Z,101927.30
2023-04-08T11:01:49.461Z,101928.13
2023-04-08T11:04:25.792Z,101929.93
2023-04-08T11:07:03.014Z,101931.37
2023-04-08T11:09:44.637Z,101929.95
2023-04-08T11:12:20.825Z,101931.95
2023-04-08T11:14:58.539Z,101928.47
2023-04-08T11:17:36.926Z,101926.96
2023-04-08T11:20:19.972Z,101928.50
2023-04-08T11:22:58.390Z,101927.66
2023-04-08T11:25:33.082Z,101926.77
2023-04-08T11:28:10.365Z,101927.76
2023-04-08T11:30:48.601Z,101926.57
2023-04-08T11:33:30.328Z,101926.83
2023-04-08T11:36:09.517Z,101925.04
2023-04-08T11:38:49.981Z,101923.29
2023-04-08T11:41:27.842Z,101923.00
2023-04-08T11:44:03.044Z,101923.19
2023-04-08T11:46:39.794Z,101924.73
2023-04-08T11:49:19.593Z,101922.12
2023-04-08T11:52:10.173Z,101923.19
2023-04-08T11:54:47.008Z,101928.42
2023-04-08T11:57:33.793Z,101924.80
2023-04-08T12:00:12.612Z,101923.13
2023-04-08T12:02:56.060Z,101919.41
2023-04-08T12:05:37.241Z,101920.70
2023-04-08T12:08:14.007Z,101922.95
2023-04-08T12:11:01.543Z,101922.27
2023-04-08T12:13:45.898Z,101915.73
2023-04-08T12:16:21.930Z,101912.01
2023-04-08T12:18:58.552Z,101909.39
2023-04-08T12:21:38.859Z,101909.83
2023-04-08T12:24:12.112Z,101905.48
2023-04-08T12:26:49.855Z,101901.55
2023-04-08T12:29:30.990Z,101896.81
2023-04-08T12:32:06.304Z,101894.02
2023-04-08T12:34:44.142Z,101896.63
2023-04-08T12:37:18.532Z,101900.09
2023-04-08T12:39:53.443Z,101894.09
2023-04-08T12:42:28.789Z,101892.96
2023-04-08T12:45:04.188Z,101892.21
2023-04-08T12:47:38.697Z,101889.55
2023-04-08T12:50:20.562Z,101889.63
2023-04-08T12:52:57.637Z,101890.17
2023-04-08T12:55:33.163Z,101889.11
2023-04-08T12:58:09.779Z,101885.27
2023-04-08T13:00:47.410Z,101884.20
2023-04-08T13:03:27.833Z,101884.61
2023-04-08T13:06:03.475Z,101884.67
2023-04-08T13:08:37.816Z,101883.33
2023-04-08T13:11:16.176Z,101880.80
2023-04-08T13:13:51.318Z,101881.38
2023-04-08T13:16:29.661Z,101882.21
2023-04-08T13:19:07.658Z,101879.15
2023-04-08T13:21:44.986Z,101881.22
2023-04-08T13:24:20.122Z,101882.38
2023-04-08T13:26:57.839Z,101879.65
2023-04-08T13:29:32.534Z,101883.89
2023-04-08T13:32:08.274Z,101882.54
2023-04-08T13:34:44.804Z,101885.48
2023-04-08T13:37:21.113Z,101885.95
2023-04-08T13:39:59.375Z,101884.77
2023-04-08T13:42:36.764Z,101881.05
2023-04-08T13:45:13.072Z,101883.03
2023-04-08T13:47:49.893Z,101880.72
2023-04-08T13:50:28.584Z,101882.71
2023-04-08T13:53:05.911Z,101883.16
2023-04-08T13:55:41.063Z,101882.59
2023-04-08T13:58:23.786Z,101881.35
2023-04-08T14:01:00.398Z,101880.89
2023-04-08T14:03:37.514Z,101878.73
2023-04-08T14:06:16.451Z,101873.14
2023-04-08T14:08:54.561Z,101872.61
2023-04-08T14:11:39.171Z,101873.59
2023-04-08T14:14:16.821Z,101871.77
2023-04-08T14:16:51.747Z,101868.66
2023-04-08T14:19:27.629Z,101864.77
2023-04-08T14:22:04.194Z,101862.70
2023-04-08T14:24:40.510Z,101855.58
2023-04-08T14:27:18.177Z,101855.39
2023-04-08T14:29:57.122Z,101853.34
2023-04-08T14:32:35.964Z,101850.25
2023-04-08T14:35:12.773Z,101851.02
2023-04-08T14:37:49.929Z,101843.16
2023-04-08T14:40:26.069Z,101842.96
2023-04-08T14:43:02.272Z,101846.15
2023-04-08T14:45:46.094Z,101844.31
2023-04-08T14:48:21.386Z,101847.54
2023-04-08T14:50:58.220Z,101845.73
2023-04-08T14:53:41.295Z,101849.87
2023-04-08T14:56:17.076Z,101842.88
2023-04-08T14:58:55.655Z,101844.05
2023-04-08T15:01:32.534Z,101844.03
2023-04-08T15:04:10.242Z,101843.50
2023-04-08T15:06:46.304Z,101840.17
2023-04-08T15:09:22.949Z,101839.23
2023-04-08T15:11:58.924Z,101840.01
2023-04-08T15:14:35.337Z,101836.36
2023-04-08T15:17:11.248Z,101834.57
2023-04-08T15:19:48.969Z,101837.83
2023-04-08T15:22:27.452Z,101833.65
2023-04-08T15:25:06.562Z,101834.98
2023-04-08T15:27:42.343Z,101836.22
2023-04-08T15:30:25.546Z,101839.95
2023-04-08T15:33:01.337Z,101838.42
2023-04-08T15:35:40.498Z,101839.16
2023-04-08T15:38:17.170Z,101839.50
2023-04-08T15:40:57.284Z,101836.76
2023-04-08T15:43:33.168Z,101839.27
2023-04-08T15:46:26.416Z,101836.09
2023-04-08T15:49:03.810Z,101841.48
2023-04-08T15:51:39.002Z,101837.97
2023-04-08T15:54:15.756Z,101836.66
2023-04-08T15:56:53.260Z,101838.05
2023-04-08T15:59:35.549Z,101841.81
2023-04-08T16:02:13.504Z,101843.80
2023-04-08T16:04:47.797Z,101842.94
2023-04-08T16:07:22.839Z,101846.93
2023-04-08T16:09:59.640Z,101848.52
2023-04-08T16:12:41.259Z,101854.27
2023-04-08T16:15:19.037Z,101851.35
2023-04-08T16:17:59.795Z,101854.54
2023-04-08T16:20:33.022Z,101851.50
2023-04-08T16:23:10.158Z,101856.65
2023-04-08T16:25:45.545Z,101854.05
2023-04-08T16:28:23.514Z,101853.06
2023-04-08T16:30:59.390Z,101854.56
2023-04-08T16:33:38.080Z,101854.77
2023-04-08T16:36:15.382Z,101854.69
2023-04-08T16:38:56.023Z,101855.89
2023-04-08T16:41:34.929Z,101855.98
2023-04-08T16:44:12.864Z,101855.98
2023-04-08T16:46:52.738Z,101859.30
2023-04-08T16:49:30.988Z,101859.92
2023-04-08T16:52:20.350Z,101862.80
2023-04-08T16:54:57.790Z,101865.00
2023-04-08T16:57:36.151Z,101869.24
2023-04-08T17:00:21.246Z,101874.27
2023-04-08T17:02:59.572Z,101879.30
2023-04-08T17:05:36.723Z,101878.58
2023-04-08T17:08:20.518Z,101881.96
2023-04-08T17:11:06.937Z,101879.97
2023-04-08T17:13:44.880Z,101883.58
2023-04-08T17:16:21.522Z,101886.23
2023-04-08T17:18:57.767Z,101889.07
2023-04-08T17:21:36.472Z,101892.70
2023-04-08T17:24:12.983Z,101893.80
2023-04-08T17:26:50.682Z,101895.77
2023-04-08T17:29:28.343Z,101895.05
2023-04-08T17:32:04.427Z,101900.61
2023-04-08T17:34:40.957Z,101897.90
2023-04-08T17:37:16.723Z,101899.94
2023-04-08T17:39:55.782Z,101904.32
2023-04-08T17:42:39.480Z,101908.60
2023-04-08T17:45:17.269Z,101909.49
2023-04-08T17:47:53.712Z,101912.77
2023-04-08T17:50:29.544Z,101918.05
2023-04-08T17:53:06.127Z,101918.50
2023-04-08T17:55:41.977Z,101924.52
2023-04-08T17:58:19.346Z,101925.41
2023-04-08T18:00:56.643Z,101928.89
2023-04-08T18:03:32.909Z,101932.85
2023-04-08T18:06:11.281Z,101933.87
2023-04-08T18:08:47.938Z,101933.92
2023-04-08T18:11:27.489Z,101938.04
2023-04-08T18:14:05.021Z,101941.23
2023-04-08T18:16:40.356Z,101942.73
2023-04-08T18:19:19.841Z,101942.46
2023-04-08T18:22:02.796Z,101943.84
2023-04-08T18:24:38.428Z,101945.01
2023-04-08T18:27:17.085Z,101940.88
2023-04-08T18:29:55.322Z,101942.63
2023-04-08T18:32:32.272Z,101944.44
2023-04-08T18:35:08.112Z,101945.89
2023-04-08T18:37:45.805Z,101948.34
2023-04-08T18:40:21.708Z,101947.30
2023-04-08T18:43:02.991Z,101948.98
2023-04-08T18:45:54.212Z,101952.10
2023-04-08T18:48:31.246Z,101953.77
2023-04-08T18:51:07.462Z,101956.20
2023-04-08T18:53:42.890Z,101957.13
2023-04-08T18:56:22.215Z,101957.36
2023-04-08T18:59:02.318Z,101960.42
2023-04-08T19:01:41.656Z,101964.34
2023-04-08T19:04:23.111Z,101957.27
2023-04-08T19:07:00.947Z,101957.44
2023-04-08T19:09:41.928Z,101960.23
2023-04-08T19:12:19.702Z,101958.06
2023-04-08T19:14:58.665Z,101956.59
2023-04-08T19:17:34.720Z,101954.38
2023-04-08T19:20:23.092Z,101956.23
2023-04-08T19:22:58.450Z,101953.83
2023-04-08T19:25:34.433Z,101955.04
2023-04-08T19:28:11.954Z,101950.75
2023-04-08T19:30:50.896Z,101954.48
2023-04-08T19:33:30.812Z,101955.55
2023-04-08T19:36:06.052Z,101959.80
2023-04-08T19:38:41.197Z,101955.78
2023-04-08T19:41:19.174Z,101957.83
2023-04-08T19:43:54.653Z,101957.62
2023-04-08T19:46:33.457Z,101959.52
2023-04-08T19:49:11.680Z,101956.00
2023-04-08T19:51:48.960Z,101953.94
2023-04-08T19:54:25.524Z,101953.90
2023-04-08T19:57:01.646Z,101951.77
2023-04-08T19:59:37.158Z,101954.11
2023-04-08T20:02:15.248Z,101953.63
2023-04-08T20:04:52.422Z,101952.70
2023-04-08T20:07:29.020Z,101951.15
2023-04-08T20:10:05.130Z,101956.84
2023-04-08T20:12:50.441Z,101962.48
2023-04-08T20:15:34.064Z,101964.88
2023-04-08T20:18:09.414Z,101963.70
2023-04-08T20:20:46.570Z,101958.54
2023-04-08T20:23:25.606Z,101964.72
2023-04-08T20:26:00.729Z,101964.25
2023-04-08T20:28:36.280Z,101963.23
2023-04-08T20:31:14.712Z,101966.47
2023-04-08T20:33:51.905Z,101963.36
2023-04-08T20:36:30.046Z,101966.13
2023-04-08T20:39:16.099Z,101963.71
2023-04-08T20:41:54.974Z,101966.58
2023-04-08T20:44:32.846Z,101965.42
2023-04-08T20:47:07.983Z,101964.52
2023-04-08T20:49:44.864Z,101966.86
2023-04-08T20:52:21.553Z,101965.98
2023-04-08T20:55:00.185Z,101964.60
2023-04-08T20:57:36.657Z,101964.30
2023-04-08T21:00:16.305Z,101965.02
2023-04-08T21:02:52.184Z,101970.49
2023-04-08T21:05:30.042Z,101973.89
2023-04-08T21:08:11.142Z,101975.17
2023-04-08T21:10:46.911Z,101977.86
2023-04-08T21:13:21.404Z,101974.63
2023-04-08T21:15:57.895Z,101979.13
2023-04-08T21:18:33.926Z,101974.98
2023-04-08T21:21:12.329Z,101974.04
2023-04-08T21:23:50.697Z,101971.46
2023-04-08T21:26:27.163Z,101969.88
2023-04-08T21:29:01.893Z,101971.67
2023-04-08T21:31:37.553Z,101967.95
2023-04-08T21:34:17.629Z,101968.09
2023-04-08T21:36:54.316Z,101967.87
2023-04-08T21:39:29.172Z,101975.67
2023-04-08T21:42:09.777Z,101973.09
2023-04-08T21:44:46.136Z,101972.39
2023-04-08T21:47:26.278Z,101974.48
2023-04-08T21:50:03.446Z,101973.56
2023-04-08T21:52:41.571Z,101975.95
2023-04-08T21:55:20.406Z,101974.14
2023-04-08T21:57:55.673Z,101974.66
2023-04-08T22:00:31.015Z,101974.75
2023-04-08T22:03:11.966Z,101973.01
2023-04-08T22:05:49.467Z,101975.01
2023-04-08T22:08:25.889Z,101965.53
2023-04-08T22:11:02.045Z,101967.89
2023-04-08T22:13:39.077Z,101962.66
2023-04-08T22:16:16.757Z,101961.92
2023-04-08T22:18:52.236Z,101963.48
2023-04-08T22:21:28.159Z,101959.70
2023-04-08T22:24:06.446Z,101962.23
2023-04-08T22:26:46.826Z,101959.65
2023-04-08T22:29:24.627Z,101963.40
2023-04-08T22:32:00.856Z,101963.31
2023-04-08T22:34:37.342Z,101959.41
2023-04-08T22:37:14.093Z,101955.45
2023-04-08T22:39:48.953Z,101951.52
2023-04-08T22:42:24.865Z,101948.28
2023-04-08T22:45:02.023Z,101949.27
2023-04-08T22:47:39.237Z,101950.36
2023-04-08T22:50:17.182Z,101947.09
2023-04-08T22:52:51.992Z,101948.39
2023-04-08T22:55:31.353Z,101950.80
2023-04-08T22:58:06.583Z,101951.25
2023-04-08T23:00:42.416Z,101948.93
2023-04-08T23:03:20.001Z,101951.64
2023-04-08T23:05:59.062Z,101948.70
2023-04-08T23:08:36.943Z,101949.73
2023-04-08T23:11:17.283Z,101948.14
2023-04-08T23:13:52.984Z,101946.02
2023-04-08T23:16:27.977Z,101945.83
2023-04-08T23:19:03.773Z,101944.02
2023-04-08T23:21:42.110Z,101944.39
2023-04-08T23:24:19.209Z,101943.17
2023-04-08T23:26:54.614Z,101940.77
2023-04-08T23:29:32.950Z,101935.89
2023-04-08T23:32:08.022Z,101935.85
2023-04-08T23:34:45.276Z,101937.73
2023-04-08T23:37:25.732Z,101934.97
2023-04-08T23:40:03.156Z,101936.56
2023-04-08T23:42:39.238Z,101935.60
2023-04-08T23:45:17.086Z,101930.48
2023-04-08T23:47:53.529Z,101926.42
2023-04-08T23:50:29.732Z,101924.59
2023-04-08T23:53:07.322Z,101918.46
2023-04-08T23:55:44.571Z,101922.90
2023-04-08T23:58:18.812Z,101921.45
